Bayliss, California
Current Conditions -  °F | °C
As of 1:56 PM on Monday 22 Dec 2014 (Local Time) from KCIC Reporting Station
Clear Clear  
Wind Chill: 64°   Ceiling: Unl
Heat Index: 64°   Visibility: 80mi
Dew Point: 55°   Wind: 9mph
Humidity: 73%   Direction: 320°NW
Pressure: 30.21"   Gusts: NA
Location:  39.6048°N, 122.032°W
Report Text: KCIC 222156Z 32008KT 80SM SKC 18/13 A3021
Loading
Personal Weather Stations






























Interactive Weather Map New forecast layout! Learn more

10-Day Weather Forecast

Advertisements
Track Severe Weather on mobile